ABY102 OBBI-OMSJ
Flight info
| Callsign | ABY102 |
|---|---|
| Flight time | N/A |
| Altitude | 25000 |
| Route | BHR N697 SODAK P559 KIVUS L305 EMOTA R784 GONVI |
| Aircraft | A320/M-SDE3FGHIRWY/LB1 |
Departure
| Time | N/A |
|---|---|
| Airport | Bahrain International Airport (OBBI) |
Arrival
| Time | 2026-05-07 12:48 |
|---|---|
| Airport | Sharjah International Airport (OMSJ) |
| Time | Latitude | Longitude | Altitude | Speed | Heading |
|---|---|---|---|---|---|
| 2026-05-07 12:34 | 25.46473 | 55.44861 | 14474 ft | 299 kts | 122° |
| 2026-05-07 12:34 | 25.45395 | 55.46820 | 14178 ft | 297 kts | 122° |
| 2026-05-07 12:34 | 25.44312 | 55.48764 | 13888 ft | 296 kts | 123° |
| 2026-05-07 12:34 | 25.43201 | 55.50673 | 13599 ft | 295 kts | 124° |
| 2026-05-07 12:35 | 25.42443 | 55.51953 | 13411 ft | 294 kts | 124° |
| 2026-05-07 12:35 | 25.41317 | 55.53832 | 13116 ft | 292 kts | 124° |
| 2026-05-07 12:35 | 25.40197 | 55.55701 | 12821 ft | 291 kts | 124° |
| 2026-05-07 12:35 | 25.39060 | 55.57603 | 12125 ft | 304 kts | 124° |
| 2026-05-07 12:36 | 25.37870 | 55.59602 | 11302 ft | 319 kts | 124° |
| 2026-05-07 12:36 | 25.36655 | 55.61719 | 10438 ft | 333 kts | 122° |
| 2026-05-07 12:36 | 25.35423 | 55.63939 | 9532 ft | 345 kts | 122° |
| 2026-05-07 12:36 | 25.34158 | 55.66249 | 8586 ft | 354 kts | 122° |
| 2026-05-07 12:37 | 25.32891 | 55.68562 | 7662 ft | 349 kts | 121° |
| 2026-05-07 12:37 | 25.31642 | 55.70837 | 6756 ft | 343 kts | 121° |
| 2026-05-07 12:37 | 25.30407 | 55.73069 | 6099 ft | 333 kts | 121° |
| 2026-05-07 12:37 | 25.29244 | 55.75169 | 5944 ft | 307 kts | 121° |
| 2026-05-07 12:38 | 25.28169 | 55.77097 | 5821 ft | 283 kts | 122° |
| 2026-05-07 12:38 | 25.27146 | 55.78865 | 5687 ft | 263 kts | 123° |
| 2026-05-07 12:38 | 25.26176 | 55.80508 | 5559 ft | 251 kts | 123° |
| 2026-05-07 12:38 | 25.25230 | 55.82108 | 5435 ft | 248 kts | 123° |
| 2026-05-07 12:39 | 25.24285 | 55.83704 | 5310 ft | 247 kts | 123° |
| 2026-05-07 12:39 | 25.23345 | 55.85288 | 5188 ft | 246 kts | 123° |
| 2026-05-07 12:39 | 25.22172 | 55.86627 | 5041 ft | 243 kts | 154° |
| 2026-05-07 12:39 | 25.20549 | 55.86927 | 4884 ft | 238 kts | 194° |
| 2026-05-07 12:40 | 25.19029 | 55.86247 | 4708 ft | 237 kts | 211° |
| 2026-05-07 12:40 | 25.17619 | 55.85265 | 4525 ft | 237 kts | 216° |
| 2026-05-07 12:40 | 25.16317 | 55.84169 | 4328 ft | 232 kts | 231° |
| 2026-05-07 12:40 | 25.15729 | 55.82601 | 4157 ft | 221 kts | 271° |
| 2026-05-07 12:41 | 25.16154 | 55.81038 | 3995 ft | 212 kts | 302° |
| 2026-05-07 12:41 | 25.16944 | 55.79682 | 3849 ft | 208 kts | 303° |
| 2026-05-07 12:41 | 25.17726 | 55.78353 | 3706 ft | 205 kts | 303° |
| 2026-05-07 12:41 | 25.18494 | 55.77033 | 3562 ft | 204 kts | 303° |
| 2026-05-07 12:42 | 25.19259 | 55.75717 | 3440 ft | 200 kts | 303° |
| 2026-05-07 12:42 | 25.19980 | 55.74472 | 3299 ft | 184 kts | 303° |
| 2026-05-07 12:42 | 25.20637 | 55.73337 | 3165 ft | 168 kts | 303° |
| 2026-05-07 12:42 | 25.21236 | 55.72301 | 3086 ft | 155 kts | 303° |
| 2026-05-07 12:43 | 25.21802 | 55.71321 | 2960 ft | 149 kts | 303° |
| 2026-05-07 12:43 | 25.22359 | 55.70360 | 2856 ft | 148 kts | 303° |
| 2026-05-07 12:43 | 25.22911 | 55.69407 | 2759 ft | 147 kts | 303° |
| 2026-05-07 12:43 | 25.23458 | 55.68463 | 2667 ft | 145 kts | 303° |
| 2026-05-07 12:44 | 25.23999 | 55.67527 | 2563 ft | 145 kts | 302° |
| 2026-05-07 12:44 | 25.24537 | 55.66595 | 2466 ft | 143 kts | 302° |
| 2026-05-07 12:44 | 25.25072 | 55.65671 | 2367 ft | 143 kts | 302° |
| 2026-05-07 12:44 | 25.25606 | 55.64748 | 2262 ft | 142 kts | 301° |
| 2026-05-07 12:45 | 25.26134 | 55.63833 | 2210 ft | 142 kts | 302° |
| 2026-05-07 12:45 | 25.26667 | 55.62911 | 2092 ft | 142 kts | 301° |
| 2026-05-07 12:45 | 25.27195 | 55.61997 | 1932 ft | 140 kts | 301° |
| 2026-05-07 12:45 | 25.27719 | 55.61090 | 1763 ft | 139 kts | 301° |
| 2026-05-07 12:46 | 25.28240 | 55.60192 | 1611 ft | 139 kts | 300° |
| 2026-05-07 12:46 | 25.28786 | 55.59318 | 1465 ft | 138 kts | 302° |
| 2026-05-07 12:46 | 25.29297 | 55.58423 | 1338 ft | 138 kts | 297° |
| 2026-05-07 12:46 | 25.29790 | 55.57526 | 1258 ft | 137 kts | 298° |
| 2026-05-07 12:47 | 25.30294 | 55.56624 | 1070 ft | 138 kts | 300° |
| 2026-05-07 12:47 | 25.30817 | 55.55717 | 815 ft | 138 kts | 301° |
| 2026-05-07 12:47 | 25.31332 | 55.54829 | 514 ft | 138 kts | 299° |
| 2026-05-07 12:47 | 25.31847 | 55.53943 | 263 ft | 136 kts | 301° |
| 2026-05-07 12:48 | 25.32355 | 55.53061 | 126 ft | 132 kts | 301° |
| 2026-05-07 12:48 | 25.32793 | 55.52291 | 113 ft | 98 kts | 302° |
| 2026-05-07 12:48 | 25.33070 | 55.51815 | 115 ft | 49 kts | 303° |
| 2026-05-07 12:48 | 25.33158 | 55.51657 | 119 ft | 1 kts | 292° |
| 2026-05-07 12:49 | 25.33158 | 55.51654 | 119 ft | 0 kts | 286° |
| 2026-05-07 12:49 | 25.33164 | 55.51634 | 119 ft | 7 kts | 287° |
| 2026-05-07 12:49 | 25.33185 | 55.51556 | 119 ft | 15 kts | 287° |
| 2026-05-07 12:49 | 25.33197 | 55.51414 | 117 ft | 23 kts | 272° |
| 2026-05-07 12:50 | 25.33206 | 55.51214 | 114 ft | 27 kts | 272° |
| 2026-05-07 12:50 | 25.33219 | 55.51109 | 116 ft | 16 kts | 288° |
| 2026-05-07 12:50 | 25.33288 | 55.50976 | 113 ft | 19 kts | 303° |
| 2026-05-07 12:50 | 25.33218 | 55.50859 | 115 ft | 26 kts | 200° |
| 2026-05-07 12:51 | 25.33110 | 55.50957 | 114 ft | 28 kts | 122° |
| 2026-05-07 12:51 | 25.33004 | 55.51130 | 115 ft | 27 kts | 125° |
| 2026-05-07 12:51 | 25.32916 | 55.51279 | 115 ft | 22 kts | 121° |
| 2026-05-07 12:51 | 25.32824 | 55.51447 | 113 ft | 25 kts | 121° |
| 2026-05-07 12:52 | 25.32758 | 55.51556 | 114 ft | 11 kts | 123° |
| 2026-05-07 12:52 | 25.32695 | 55.51567 | 115 ft | 13 kts | 210° |
| 2026-05-07 12:52 | 25.32637 | 55.51524 | 112 ft | 8 kts | 239° |
| 2026-05-07 12:52 | 25.32653 | 55.51488 | 113 ft | 7 kts | 301° |
| 2026-05-07 12:53 | 25.32662 | 55.51473 | 115 ft | 0 kts | 302° |